JAX weather

Jacksonville International Airport
Jacksonville, Florida, United States

Public forecast

Using degrees Fahrenheit for public forecast. Weather courtesy of forecast.io.

Current aviation weather report (METAR) for Jacksonville International Airport

Retrieved 2019/11/21 03:56 UTC (40 minutes ago):

KJAX 210356Z 00000KT 10SM FEW250 09/07 A3022 RMK AO2 SLP232 T00890072

Aviation forecast (TAF) for Jacksonville International Airport

Retrieved 2019-11-21 00:22 UTC (4 hours ago):

TAF KJAX 202320Z 2100/2124 04002KT P6SM SCT250 FM211600 07008KT P6SM SCT040 BKN250